Time;durP1;ratioP1;P1;durP2;ratioP2;P2;SDS_P1;SDS_P2;PMS_P1;PMS_P2;Temp;Humidity;BMP_temperature;BMP_pressure;BME280_temperature;BME280_humidity;BME280_pressure;Samples;Min_cycle;Max_cycle;Signal;HPM_P1;HPM_P2
2022/07/21 00:00:49;;;;;;;5.68;4.30;;;;;;;25.80;38.55;100589.53;4975671;28;20036;-29
2022/07/21 00:03:15;;;;;;;6.75;5.68;;;;;;;25.82;38.75;100595.69;4975502;28;20031;-29
2022/07/21 00:05:40;;;;;;;7.97;6.88;;;;;;;25.84;39.65;100611.78;4974916;28;20034;-29
2022/07/21 00:08:05;;;;;;;11.15;7.43;;;;;;;25.81;40.31;100606.59;4975893;28;20031;-29
2022/07/21 00:10:31;;;;;;;11.45;7.75;;;;;;;25.83;40.47;100616.31;4974411;28;20483;-29
2022/07/21 00:12:57;;;;;;;11.40;9.55;;;;;;;25.84;41.41;100618.03;4974359;28;20027;-29
2022/07/21 00:15:25;;;;;;;12.02;10.07;;;;;;;25.87;42.36;100623.19;4975626;28;20035;-29
2022/07/21 00:17:51;;;;;;;15.40;10.63;;;;;;;25.91;42.25;100631.91;4975294;28;20031;-29
2022/07/21 00:20:17;;;;;;;13.05;11.43;;;;;;;25.97;42.92;100630.59;4974061;28;20049;-29
2022/07/21 00:22:42;;;;;;;14.85;12.10;;;;;;;26.01;43.57;100640.22;4975007;28;20026;-29
2022/07/21 00:25:09;;;;;;;20.48;14.05;;;;;;;26.08;44.54;100633.34;4980075;28;20034;-29
2022/07/21 00:27:35;;;;;;;21.23;13.85;;;;;;;26.09;45.47;100637.78;4994689;28;20037;-29
2022/07/21 00:30:01;;;;;;;21.25;14.77;;;;;;;26.14;44.83;100642.81;4993344;28;20030;-29
2022/07/21 00:32:26;;;;;;;16.98;13.45;;;;;;;26.16;45.68;100643.59;4994555;28;20061;-29
2022/07/21 00:34:52;;;;;;;18.05;14.00;;;;;;;26.20;45.94;100649.59;4994430;28;20125;-29
2022/07/21 00:37:17;;;;;;;20.08;14.98;;;;;;;26.21;45.67;100640.53;4994217;28;20022;-29
2022/07/21 00:39:42;;;;;;;22.00;14.75;;;;;;;26.20;45.96;100638.81;4992992;28;20121;-29
2022/07/21 00:42:08;;;;;;;20.00;13.82;;;;;;;26.21;45.86;100657.59;4994468;28;20367;-29
2022/07/21 00:44:33;;;;;;;18.02;13.35;;;;;;;26.20;46.11;100657.72;4994097;28;20072;-29
2022/07/21 00:46:58;;;;;;;14.50;12.63;;;;;;;26.17;46.55;100656.13;4994275;28;20030;-29
2022/07/21 00:49:24;;;;;;;20.55;12.60;;;;;;;26.16;46.63;100664.34;4992786;28;20018;-29
2022/07/21 00:51:50;;;;;;;16.25;13.32;;;;;;;26.11;46.56;100673.66;4994529;28;20037;-29
2022/07/21 00:54:16;;;;;;;17.00;12.75;;;;;;;26.12;46.50;100680.81;4980262;28;20026;-29
2022/07/21 00:56:42;;;;;;;17.15;12.70;;;;;;;26.11;46.25;100664.72;4975201;28;20118;-29
2022/07/21 00:59:08;;;;;;;17.65;13.13;;;;;;;26.04;46.40;100653.47;4974585;28;20106;-28
2022/07/21 01:01:33;;;;;;;14.18;12.85;;;;;;;26.07;46.14;100663.22;4974314;28;20070;-28
2022/07/21 01:03:58;;;;;;;16.80;11.25;;;;;;;26.04;46.13;100666.97;4972936;28;20050;-28
2022/07/21 01:06:25;;;;;;;16.58;11.95;;;;;;;26.02;46.25;100658.16;4974135;28;20023;-28
2022/07/21 01:08:51;;;;;;;14.45;12.07;;;;;;;25.98;46.43;100657.50;4990539;28;20048;-28
2022/07/21 01:11:17;;;;;;;15.48;12.20;;;;;;;25.94;46.26;100658.72;4993811;28;20030;-28
2022/07/21 01:13:43;;;;;;;15.00;10.93;;;;;;;25.93;46.22;100669.63;4976479;28;20025;-28
2022/07/21 01:16:09;;;;;;;14.27;11.45;;;;;;;25.90;45.80;100675.28;4993650;28;20030;-28
2022/07/21 01:18:34;;;;;;;14.10;10.80;;;;;;;25.88;46.09;100681.66;5012072;28;20054;-28
2022/07/21 01:21:02;;;;;;;11.60;10.50;;;;;;;25.80;46.15;100692.16;5030993;28;20656;-29
2022/07/21 01:23:28;;;;;;;11.50;10.30;;;;;;;25.82;46.34;100701.03;4975940;28;20101;-28
2022/07/21 01:25:53;;;;;;;11.93;10.82;;;;;;;25.80;46.08;100696.72;4976155;28;20109;-28
2022/07/21 01:28:18;;;;;;;11.48;10.40;;;;;;;25.77;46.16;100697.78;4993279;28;20033;-29
2022/07/21 01:30:44;;;;;;;11.75;10.77;;;;;;;25.73;46.08;100705.25;4993358;28;20084;-29
2022/07/21 01:33:09;;;;;;;11.63;10.45;;;;;;;25.72;45.64;100711.66;4993423;28;20077;-29
2022/07/21 01:35:35;;;;;;;17.60;10.85;;;;;;;25.66;46.12;100722.88;4993278;28;20026;-29
2022/07/21 01:38:00;;;;;;;11.90;10.18;;;;;;;25.64;46.23;100714.00;4993360;28;20041;-29
2022/07/21 01:43:09;;;;;;;16.50;11.45;;;;;;;25.62;45.64;100710.56;4993220;28;20530;-29
2022/07/21 01:45:35;;;;;;;11.10;10.10;;;;;;;25.58;45.06;100709.06;5002125;28;20109;-29
2022/07/21 01:48:00;;;;;;;14.63;10.13;;;;;;;25.57;44.83;100715.44;4978812;28;20180;-28
2022/07/21 01:50:29;;;;;;;11.55;10.18;;;;;;;25.55;44.57;100717.38;4978845;28;20048;-28
2022/07/21 01:52:58;;;;;;;13.70;10.95;;;;;;;25.52;44.30;100720.28;4997121;28;20102;-28
2022/07/21 01:55:24;;;;;;;12.48;9.98;;;;;;;25.48;44.30;100730.44;4993255;28;20445;-28
2022/07/21 01:57:50;;;;;;;11.75;10.50;;;;;;;25.45;43.99;100742.34;4975406;28;20117;-29
2022/07/21 02:00:16;;;;;;;10.88;9.77;;;;;;;25.42;44.08;100738.97;5004965;28;20156;-29
2022/07/21 02:02:42;;;;;;;11.05;9.95;;;;;;;25.40;44.05;100749.03;5006646;28;20060;-29
2022/07/21 02:05:08;;;;;;;10.70;9.35;;;;;;;25.37;44.13;100750.09;5015273;28;20025;-29
2022/07/21 02:07:33;;;;;;;10.98;9.88;;;;;;;25.34;43.88;100753.88;5033210;28;20242;-29
2022/07/21 02:09:58;;;;;;;12.02;10.82;;;;;;;25.32;43.56;100749.56;5032213;28;20026;-29
2022/07/21 02:12:24;;;;;;;11.05;10.02;;;;;;;25.29;43.82;100736.28;5032038;28;20029;-29
2022/07/21 02:14:49;;;;;;;12.88;10.63;;;;;;;25.26;43.66;100745.47;5031786;28;20120;-32
2022/07/21 02:17:15;;;;;;;12.23;9.75;;;;;;;25.22;43.78;100750.22;5031595;28;20032;-32
2022/07/21 02:19:40;;;;;;;12.38;11.07;;;;;;;25.21;43.35;100761.13;5032282;28;20040;-32
2022/07/21 02:22:06;;;;;;;13.10;10.98;;;;;;;25.18;43.37;100753.25;5031657;28;20585;-32
2022/07/21 02:24:31;;;;;;;11.48;10.50;;;;;;;25.13;43.11;100763.47;5031295;28;20021;-32
2022/07/21 02:26:56;;;;;;;12.05;10.82;;;;;;;25.08;43.27;100758.41;5029229;28;20079;-32
2022/07/21 02:29:22;;;;;;;12.50;11.30;;;;;;;25.04;42.92;100760.44;4992043;28;20496;-32
2022/07/21 02:31:47;;;;;;;11.82;10.55;;;;;;;25.02;43.00;100762.41;4992457;28;20105;-32
2022/07/21 02:34:12;;;;;;;12.15;10.90;;;;;;;24.96;43.09;100763.69;4974753;28;20372;-32
2022/07/21 02:36:38;;;;;;;13.32;11.02;;;;;;;24.93;43.30;100768.41;4992189;28;20079;-32
2022/07/21 02:39:03;;;;;;;11.13;9.95;;;;;;;24.90;43.29;100774.03;4992042;28;20022;-32
2022/07/21 02:41:29;;;;;;;14.68;11.25;;;;;;;24.87;43.20;100783.19;4974716;28;20041;-31
2022/07/21 02:43:54;;;;;;;11.38;10.38;;;;;;;24.83;43.56;100795.13;4991798;28;20045;-31
2022/07/21 02:46:19;;;;;;;11.75;10.35;;;;;;;24.77;43.09;100795.56;4990463;28;20026;-32
2022/07/21 02:48:45;;;;;;;13.43;11.15;;;;;;;24.75;43.52;100798.34;4994005;28;20388;-31
2022/07/21 02:51:10;;;;;;;11.48;10.27;;;;;;;24.70;43.80;100800.47;4994053;28;20030;-31
2022/07/21 02:53:35;;;;;;;11.68;10.48;;;;;;;24.67;43.31;100800.72;5011446;28;20032;-32
2022/07/21 02:56:01;;;;;;;12.07;10.43;;;;;;;24.61;43.38;100801.97;5003105;28;20116;-32
2022/07/21 02:58:28;;;;;;;12.10;11.00;;;;;;;24.57;43.77;100806.69;4991879;28;20462;-31
2022/07/21 03:00:59;;;;;;;11.98;10.73;;;;;;;24.54;43.74;100819.53;4974661;28;20022;-32
2022/07/21 03:03:27;;;;;;;11.18;10.18;;;;;;;24.52;44.11;100824.16;4992252;28;20030;-32
2022/07/21 03:05:53;;;;;;;11.85;10.75;;;;;;;24.47;43.94;100822.63;4974508;28;20018;-32
2022/07/21 03:08:21;;;;;;;10.93;9.98;;;;;;;24.43;43.98;100818.41;4991816;28;20084;-31
2022/07/21 03:10:47;;;;;;;11.30;10.27;;;;;;;24.39;43.74;100824.09;5006251;28;20026;-32
2022/07/21 03:13:12;;;;;;;11.50;10.25;;;;;;;24.30;44.05;100831.81;5011001;28;20080;-32
2022/07/21 03:15:38;;;;;;;10.27;9.27;;;;;;;24.23;45.06;100840.41;5011826;28;20073;-32
2022/07/21 03:18:04;;;;;;;10.88;9.68;;;;;;;24.20;45.17;100827.97;4998217;28;20065;-32
2022/07/21 03:20:32;;;;;;;10.23;9.25;;;;;;;24.21;44.38;100835.13;4991818;28;20472;-32
2022/07/21 03:22:58;;;;;;;10.77;9.68;;;;;;;24.18;44.21;100829.91;4991940;28;20030;-32
2022/07/21 03:25:23;;;;;;;9.23;8.32;;;;;;;24.13;44.39;100835.59;4988061;28;20085;-32
2022/07/21 03:27:49;;;;;;;9.73;8.73;;;;;;;24.12;44.37;100839.25;4972201;28;20081;-31
2022/07/21 03:30:15;;;;;;;8.93;8.10;;;;;;;24.08;44.25;100835.00;4972559;28;20030;-32
2022/07/21 03:32:40;;;;;;;10.10;8.60;;;;;;;24.03;44.43;100850.56;4972212;28;20066;-32
2022/07/21 03:35:08;;;;;;;9.38;8.43;;;;;;;23.96;44.92;100845.59;4984507;28;20022;-32
2022/07/21 03:37:58;;;;;;;8.55;7.75;;;;;;;23.95;44.55;100854.59;4990971;28;20487;-32
2022/07/21 03:40:25;;;;;;;9.27;7.88;;;;;;;23.90;44.47;100864.81;4992964;28;20088;-32
2022/07/21 03:42:55;;;;;;;7.70;7.00;;;;;;;23.90;44.72;100858.56;4995214;28;20026;-32
2022/07/21 03:45:21;;;;;;;10.13;7.45;;;;;;;23.90;44.37;100859.44;4986167;28;20033;-31
2022/07/21 03:47:46;;;;;;;8.07;7.38;;;;;;;23.90;44.49;100862.13;4974224;28;20051;-32
2022/07/21 03:50:13;;;;;;;7.90;7.20;;;;;;;23.88;44.48;100861.38;4974344;28;20034;-31
2022/07/21 03:52:39;;;;;;;8.75;7.28;;;;;;;23.86;44.59;100860.59;4974410;28;20026;-32
2022/07/21 03:55:08;;;;;;;8.05;6.80;;;;;;;23.84;44.60;100857.13;4975833;28;20026;-32
2022/07/21 03:57:38;;;;;;;8.57;7.28;;;;;;;23.82;44.39;100848.28;4975329;28;20019;-32
2022/07/21 04:00:10;;;;;;;7.47;6.80;;;;;;;23.82;44.33;100848.28;4975764;28;20030;-32
2022/07/21 04:02:35;;;;;;;6.50;5.90;;;;;;;23.81;44.68;100854.63;4975599;28;20041;-31
2022/07/21 04:05:01;;;;;;;6.47;5.93;;;;;;;23.82;44.60;100872.50;4974429;28;20026;-31
2022/07/21 04:07:27;;;;;;;6.68;6.10;;;;;;;23.82;44.42;100875.22;4993366;28;20081;-32
2022/07/21 04:09:52;;;;;;;7.55;6.85;;;;;;;23.79;44.67;100886.16;4995210;28;20026;-33
2022/07/21 04:12:17;;;;;;;6.78;6.18;;;;;;;23.79;44.54;100888.84;4995340;28;20026;-33
2022/07/21 04:14:43;;;;;;;6.82;6.20;;;;;;;23.77;44.52;100904.25;4994873;28;20471;-32
2022/07/21 04:17:08;;;;;;;6.70;6.10;;;;;;;23.79;44.41;100913.97;5000269;28;20026;-32
2022/07/21 04:19:33;;;;;;;6.50;5.90;;;;;;;23.79;44.59;100923.88;5012016;28;20109;-32
2022/07/21 04:21:59;;;;;;;6.80;6.20;;;;;;;23.79;45.01;100923.88;4994418;28;20034;-32
2022/07/21 04:24:24;;;;;;;6.85;6.25;;;;;;;23.79;44.85;100926.56;4994509;28;20034;-32
2022/07/21 04:26:49;;;;;;;6.80;5.22;;;;;;;23.79;44.52;100921.16;4994362;28;20482;-32
2022/07/21 04:29:15;;;;;;;7.15;6.28;;;;;;;23.80;44.46;100921.09;4995009;28;20026;-32
2022/07/21 04:31:40;;;;;;;6.43;5.82;;;;;;;23.82;46.43;100918.28;4994898;28;20359;-32
2022/07/21 04:34:06;;;;;;;5.93;5.30;;;;;;;23.82;46.06;100891.38;4993957;28;20585;-32
2022/07/21 04:36:31;;;;;;;6.30;5.50;;;;;;;23.83;45.80;100876.94;4994373;28;20030;-32
2022/07/21 04:38:56;;;;;;;5.22;4.80;;;;;;;23.84;45.18;100873.28;4976692;28;20022;-32
2022/07/21 04:41:22;;;;;;;6.03;5.20;;;;;;;23.86;45.20;100876.75;4960741;28;20061;-32
2022/07/21 04:43:47;;;;;;;6.05;5.55;;;;;;;23.88;44.77;100874.84;4994222;28;20030;-32
2022/07/21 04:46:12;;;;;;;5.97;5.38;;;;;;;23.90;44.99;100867.50;4991523;28;20025;-32
2022/07/21 04:48:38;;;;;;;6.63;5.07;;;;;;;23.92;44.85;100860.22;4995085;28;20069;-32
2022/07/21 04:51:03;;;;;;;5.40;4.90;;;;;;;23.91;45.01;100855.78;5013133;28;20018;-32
2022/07/21 04:53:28;;;;;;;8.43;5.82;;;;;;;23.93;44.77;100875.41;5012665;28;20061;-32
2022/07/21 04:55:54;;;;;;;5.93;4.90;;;;;;;23.94;44.54;100863.66;5013720;28;20117;-32
2022/07/21 04:58:19;;;;;;;5.65;5.15;;;;;;;23.94;44.74;100858.28;5013508;28;20029;-32
2022/07/21 05:00:44;;;;;;;5.78;5.15;;;;;;;23.95;44.67;100854.59;5013738;28;20075;-32
2022/07/21 05:03:12;;;;;;;6.03;5.30;;;;;;;23.95;44.56;100860.00;4982745;28;20030;-32
2022/07/21 05:05:37;;;;;;;5.25;4.75;;;;;;;23.95;44.86;100862.69;5001547;28;20048;-32
2022/07/21 05:08:03;;;;;;;6.13;5.63;;;;;;;23.96;44.54;100877.91;5013517;28;20026;-32
2022/07/21 05:10:28;;;;;;;7.07;4.97;;;;;;;23.97;45.03;100881.44;5013548;28;20113;-32
2022/07/21 05:12:54;;;;;;;5.00;4.60;;;;;;;23.96;44.87;100867.13;4996028;28;20022;-32
2022/07/21 05:15:19;;;;;;;5.60;5.10;;;;;;;23.96;45.29;100871.66;4989900;28;20038;-32
2022/07/21 05:17:44;;;;;;;9.25;5.30;;;;;;;23.96;45.67;100877.91;4983236;28;20399;-31
2022/07/21 05:20:10;;;;;;;7.28;5.32;;;;;;;23.98;45.27;100879.63;4984327;28;20038;-31
2022/07/21 05:22:36;;;;;;;6.32;4.90;;;;;;;23.96;45.73;100880.59;4993664;28;20113;-31
2022/07/21 05:25:02;;;;;;;5.20;4.55;;;;;;;23.97;46.28;100894.91;4993560;28;20471;-30
2022/07/21 05:27:27;;;;;;;5.20;4.75;;;;;;;23.98;47.00;100906.56;4993423;28;20027;-31
2022/07/21 05:29:53;;;;;;;4.65;4.20;;;;;;;24.03;47.22;100926.00;4992320;28;20033;-31
2022/07/21 05:32:18;;;;;;;5.00;4.60;;;;;;;24.05;47.40;100934.84;4972753;28;20037;-31
2022/07/21 05:34:43;;;;;;;4.78;4.38;;;;;;;24.04;47.05;100933.13;4982336;28;20097;-30
2022/07/21 05:37:09;;;;;;;6.32;4.55;;;;;;;24.05;48.01;100929.47;4993182;28;20080;-31
2022/07/21 05:39:34;;;;;;;6.03;4.72;;;;;;;24.03;48.02;100932.25;4993571;28;20022;-31
2022/07/21 05:42:00;;;;;;;8.90;4.68;;;;;;;24.06;48.15;100939.28;4993342;28;20117;-31
2022/07/21 05:44:25;;;;;;;5.90;4.57;;;;;;;24.04;48.50;100936.69;4992555;28;20031;-31
2022/07/21 05:46:50;;;;;;;5.05;4.43;;;;;;;24.06;48.28;100942.84;4991717;28;20037;-31
2022/07/21 05:49:16;;;;;;;5.35;4.13;;;;;;;24.05;49.31;100933.03;4992892;28;20026;-31
2022/07/21 05:51:41;;;;;;;5.40;4.07;;;;;;;24.07;50.00;100943.69;4993085;28;20084;-31
2022/07/21 05:54:06;;;;;;;5.68;4.25;;;;;;;24.04;49.74;100958.22;4991594;28;20022;-31
2022/07/21 05:56:32;;;;;;;8.30;4.70;;;;;;;24.06;48.96;100947.34;4992859;28;20517;-31
2022/07/21 05:58:57;;;;;;;4.78;4.38;;;;;;;24.05;49.70;100940.25;4992926;28;20116;-31
2022/07/21 06:01:22;;;;;;;5.32;4.82;;;;;;;24.08;50.64;100940.91;4986996;28;20035;-31
2022/07/21 06:03:49;;;;;;;6.97;4.50;;;;;;;24.09;50.31;100948.06;4972886;28;20136;-31
2022/07/21 06:06:16;;;;;;;6.68;4.18;;;;;;;24.12;49.87;100957.78;4991518;28;20109;-31
2022/07/21 06:08:45;;;;;;;6.43;5.43;;;;;;;24.09;51.40;100957.94;4992883;28;20061;-31
2022/07/21 06:11:12;;;;;;;8.73;4.82;;;;;;;24.09;51.88;100968.72;4992942;28;20520;-31
2022/07/21 06:13:39;;;;;;;7.00;5.25;;;;;;;24.09;51.72;100968.72;4992697;28;20029;-31
2022/07/21 06:16:05;;;;;;;7.57;4.45;;;;;;;24.09;51.22;100975.00;4992710;28;20076;-30
2022/07/21 06:18:30;;;;;;;6.53;4.50;;;;;;;24.10;51.30;100970.44;4988762;28;20018;-31
2022/07/21 06:20:55;;;;;;;5.97;4.63;;;;;;;24.13;52.11;100970.28;4972047;28;20475;-30
2022/07/21 06:23:21;;;;;;;6.75;4.80;;;;;;;24.18;52.40;100970.88;4973239;28;20070;-30
2022/07/21 06:25:47;;;;;;;6.65;5.18;;;;;;;24.29;52.62;100969.34;4990830;28;20101;-30
2022/07/21 06:28:12;;;;;;;8.15;4.90;;;;;;;24.34;52.49;100972.63;4992202;28;20464;-30
2022/07/21 06:30:37;;;;;;;6.97;5.00;;;;;;;24.41;53.05;100984.72;4991993;28;20030;-31
2022/07/21 06:33:03;;;;;;;6.40;5.00;;;;;;;24.45;53.25;100980.88;4992307;28;20041;-29
2022/07/21 06:35:28;;;;;;;4.95;4.55;;;;;;;24.48;52.44;100978.00;4992538;28;20113;-29
2022/07/21 06:37:53;;;;;;;6.15;5.28;;;;;;;24.53;53.01;100976.81;4991070;28;20549;-29
2022/07/21 06:40:19;;;;;;;7.72;5.43;;;;;;;24.57;52.64;100970.28;4991216;28;20038;-29
2022/07/21 06:42:44;;;;;;;5.65;5.07;;;;;;;24.60;52.33;100983.56;4992356;28;20384;-29
2022/07/21 06:45:09;;;;;;;8.38;5.28;;;;;;;24.63;52.53;100993.28;5000217;28;20488;-29
2022/07/21 06:47:35;;;;;;;7.15;5.38;;;;;;;24.65;52.25;100980.59;4986192;28;20041;-29
2022/07/21 06:50:02;;;;;;;9.70;5.55;;;;;;;24.67;52.70;100979.50;4992391;28;20502;-29
2022/07/21 06:52:32;;;;;;;5.60;5.10;;;;;;;24.70;52.97;100981.13;4991155;28;20030;-29
2022/07/21 06:54:57;;;;;;;7.10;4.90;;;;;;;24.73;52.15;100965.66;4990954;28;20030;-29
2022/07/21 06:57:23;;;;;;;5.93;4.90;;;;;;;24.77;52.48;100954.66;4990991;28;20101;-29
2022/07/21 06:59:48;;;;;;;6.10;5.35;;;;;;;24.77;52.66;100960.06;4991196;28;20414;-29
2022/07/21 07:02:14;;;;;;;9.40;5.93;;;;;;;24.81;52.52;100970.53;4992042;28;20030;-29
2022/07/21 07:04:39;;;;;;;8.50;6.50;;;;;;;24.85;53.09;100982.00;4992188;28;20026;-29
2022/07/21 07:07:05;;;;;;;6.72;5.18;;;;;;;24.89;52.35;100974.59;4990710;28;20383;-29
2022/07/21 07:09:30;;;;;;;6.47;5.72;;;;;;;24.92;53.41;100974.41;4992277;28;20089;-29
2022/07/21 07:12:03;;;;;;;8.43;5.82;;;;;;;24.95;53.00;100977.78;4992278;28;20036;-29
2022/07/21 07:14:32;;;;;;;8.23;5.95;;;;;;;25.01;52.69;100986.41;4992090;28;20026;-29
2022/07/21 07:16:58;;;;;;;5.82;5.32;;;;;;;25.05;52.61;100982.56;4980877;28;20062;-29
2022/07/21 07:19:23;;;;;;;6.95;5.55;;;;;;;25.10;52.01;100969.63;4991184;28;20116;-29
2022/07/21 07:21:49;;;;;;;6.00;5.50;;;;;;;25.13;51.81;100972.13;4996017;28;20057;-29
2022/07/21 07:24:14;;;;;;;6.45;5.63;;;;;;;25.16;51.54;100980.00;4994277;28;20034;-29
2022/07/21 07:26:40;;;;;;;9.30;5.45;;;;;;;25.19;51.36;100982.50;4994493;28;20418;-29
2022/07/21 07:29:05;;;;;;;5.90;5.40;;;;;;;25.23;52.34;100991.25;4996167;28;20037;-29
2022/07/21 07:31:31;;;;;;;6.90;6.03;;;;;;;25.25;52.21;100997.44;4995499;28;20108;-29
2022/07/21 07:33:57;;;;;;;6.47;5.47;;;;;;;25.29;52.23;101016.97;4994663;28;20043;-29
2022/07/21 07:36:23;;;;;;;6.10;5.45;;;;;;;25.29;52.46;101012.44;4994395;28;20153;-29
2022/07/21 07:38:49;;;;;;;6.65;6.03;;;;;;;25.29;52.75;101019.66;4994305;28;20064;-29
2022/07/21 07:41:14;;;;;;;5.90;5.40;;;;;;;25.31;52.48;101020.44;4995880;28;20030;-29
2022/07/21 07:43:40;;;;;;;6.38;5.78;;;;;;;25.29;53.09;101023.25;4994228;28;20036;-29
2022/07/21 07:46:06;;;;;;;7.88;6.75;;;;;;;25.25;53.58;101029.81;4995356;28;20418;-29
2022/07/21 07:48:31;;;;;;;7.38;6.63;;;;;;;25.25;53.72;101027.13;4994817;28;20406;-29
2022/07/21 07:50:56;;;;;;;11.13;6.70;;;;;;;25.23;54.31;101024.53;4995392;28;20027;-29
2022/07/21 07:53:22;;;;;;;8.30;6.63;;;;;;;25.21;55.30;101015.63;4995667;28;20539;-29
2022/07/21 07:55:47;;;;;;;7.07;6.40;;;;;;;25.15;55.84;101018.75;4995331;28;20037;-29
2022/07/21 07:58:13;;;;;;;7.15;6.55;;;;;;;25.09;55.98;101033.53;4995243;28;20036;-29
2022/07/21 08:00:39;;;;;;;7.28;6.57;;;;;;;25.06;55.97;101032.84;4994207;28;20101;-29
2022/07/21 08:03:05;;;;;;;9.50;7.93;;;;;;;25.01;55.97;101019.66;4993689;28;20030;-29
2022/07/21 08:05:30;;;;;;;8.57;7.32;;;;;;;24.99;55.84;101016.19;4992081;28;20412;-29
2022/07/21 08:07:55;;;;;;;7.30;6.60;;;;;;;24.96;55.81;101033.44;4994573;28;20022;-29
2022/07/21 08:10:21;;;;;;;8.65;7.75;;;;;;;24.94;56.39;101029.97;4993918;28;20054;-29
2022/07/21 08:12:46;;;;;;;11.80;8.15;;;;;;;24.93;56.70;101032.75;4994829;28;20061;-29
2022/07/21 08:15:12;;;;;;;9.15;8.35;;;;;;;24.94;56.74;101031.81;4993586;28;20461;-29
2022/07/21 08:17:37;;;;;;;9.00;8.13;;;;;;;24.94;57.00;101031.81;4993322;28;20385;-29
2022/07/21 08:20:04;;;;;;;8.05;7.32;;;;;;;24.94;56.64;101024.56;4994273;28;20039;-29
2022/07/21 08:22:30;;;;;;;9.05;8.23;;;;;;;24.94;56.72;101026.44;4993768;28;20034;-29
2022/07/21 08:24:55;;;;;;;7.95;7.15;;;;;;;24.94;56.68;101024.56;4993248;28;20501;-29
2022/07/21 08:27:20;;;;;;;9.80;7.65;;;;;;;24.97;56.58;101035.19;4994439;28;20424;-29
2022/07/21 08:29:46;;;;;;;8.93;8.02;;;;;;;25.01;56.41;101045.78;4994516;28;20109;-29
2022/07/21 08:32:11;;;;;;;8.73;8.02;;;;;;;24.97;56.55;101032.47;4994667;28;20107;-29
2022/07/21 08:34:37;;;;;;;8.32;7.53;;;;;;;24.94;56.74;101026.44;4994364;28;20076;-29
2022/07/21 08:37:02;;;;;;;8.75;7.88;;;;;;;24.91;56.72;101019.38;4994038;28;20030;-29
2022/07/21 08:39:28;;;;;;;11.40;8.18;;;;;;;24.89;56.59;101023.16;4993261;28;20436;-29
2022/07/21 08:41:53;;;;;;;8.23;7.43;;;;;;;24.83;56.76;101021.69;4994461;28;20085;-29
2022/07/21 08:44:20;;;;;;;9.70;7.03;;;;;;;24.89;56.61;101026.72;4994131;28;20037;-29
2022/07/21 08:46:49;;;;;;;8.32;7.50;;;;;;;24.93;56.76;101032.75;4974797;28;20022;-29
2022/07/21 08:49:15;;;;;;;8.15;7.45;;;;;;;24.92;56.17;101029.22;4975149;28;20034;-30
2022/07/21 08:51:40;;;;;;;9.05;7.60;;;;;;;24.93;56.10;101033.66;4973514;28;20061;-29
2022/07/21 08:54:06;;;;;;;9.00;8.02;;;;;;;24.95;56.14;101042.53;4975154;28;20410;-29
2022/07/21 08:56:31;;;;;;;8.00;7.25;;;;;;;24.96;56.22;101052.34;4973299;28;20037;-29
2022/07/21 08:58:56;;;;;;;7.93;7.07;;;;;;;25.00;55.81;101046.75;4974699;28;20043;-29
2022/07/21 09:01:23;;;;;;;8.05;7.30;;;;;;;24.99;56.16;101051.25;4974624;28;20062;-29
2022/07/21 09:03:50;;;;;;;9.13;7.85;;;;;;;25.00;56.51;101044.06;4974574;28;20031;-29
2022/07/21 09:06:16;;;;;;;9.27;8.48;;;;;;;24.98;55.96;101042.28;4974962;28;20283;-29
2022/07/21 09:08:46;;;;;;;9.30;8.43;;;;;;;25.02;56.08;101050.19;4974587;28;20035;-29
2022/07/21 09:11:18;;;;;;;8.13;7.18;;;;;;;25.05;56.32;101058.09;4993455;28;20498;-29
2022/07/21 09:13:45;;;;;;;9.80;8.93;;;;;;;25.06;56.37;101055.31;4976149;28;20082;-29
2022/07/21 09:16:11;;;;;;;10.38;8.57;;;;;;;25.12;55.54;101064.84;4993013;28;20135;-29
2022/07/21 09:18:48;;;;;;;9.77;8.75;;;;;;;25.16;55.42;101066.38;4995639;28;20509;-29
2022/07/21 09:21:15;;;;;;;9.23;8.32;;;;;;;25.20;55.26;101058.91;5013417;28;20026;-29
2022/07/21 09:23:40;;;;;;;10.07;9.13;;;;;;;25.23;55.33;101061.41;5013158;28;20368;-29
2022/07/21 09:26:06;;;;;;;11.27;9.30;;;;;;;25.28;55.78;101066.53;5013011;28;20542;-29
2022/07/21 09:28:31;;;;;;;10.15;9.35;;;;;;;25.31;56.05;101080.69;5013817;28;20490;-29
2022/07/21 09:31:03;;;;;;;9.90;8.93;;;;;;;25.36;55.92;101066.88;4995501;28;20065;-29
2022/07/21 09:33:32;;;;;;;12.52;10.00;;;;;;;25.43;55.88;101078.13;5013361;28;20036;-29
2022/07/21 09:36:10;;;;;;;12.60;10.38;;;;;;;25.44;55.80;101067.25;4995794;28;20062;-29
2022/07/21 09:38:56;;;;;;;11.38;10.07;;;;;;;25.55;56.26;101076.47;5012315;28;20359;-29
2022/07/21 09:41:23;;;;;;;11.73;10.55;;;;;;;25.61;56.23;101076.09;5003383;28;20034;-29
2022/07/21 09:43:51;;;;;;;11.15;9.98;;;;;;;25.66;55.70;101079.34;4975800;28;20424;-29
2022/07/21 09:46:24;;;;;;;11.25;10.25;;;;;;;25.70;55.72;101064.66;5008859;28;20030;-29
2022/07/21 09:48:52;;;;;;;11.35;10.30;;;;;;;25.76;55.47;101058.00;5013226;28;20108;-29
2022/07/21 09:51:27;;;;;;;11.48;10.32;;;;;;;25.85;55.16;101053.81;5013196;28;20045;-29
2022/07/21 09:54:03;;;;;;;13.75;11.50;;;;;;;25.98;54.99;101043.88;5012828;28;20114;-29
2022/07/21 09:56:33;;;;;;;11.90;10.90;;;;;;;26.19;55.09;101032.56;4995537;28;20029;-29
2022/07/21 09:59:00;;;;;;;12.18;10.93;;;;;;;26.36;54.63;101028.69;4993461;28;20025;-29
2022/07/21 10:01:27;;;;;;;11.80;10.60;;;;;;;26.42;54.04;101035.50;4959569;28;20386;-29
2022/07/21 10:03:53;;;;;;;11.98;10.82;;;;;;;26.48;53.94;101031.50;4996214;28;20014;-29
2022/07/21 10:06:23;;;;;;;12.50;11.18;;;;;;;26.62;53.93;101023.28;5012090;28;20105;-29
2022/07/21 10:08:49;;;;;;;12.77;11.57;;;;;;;26.76;53.37;101019.56;4994923;28;20025;-29
2022/07/21 10:11:14;;;;;;;12.10;10.88;;;;;;;26.86;53.38;101017.03;4994790;28;20034;-29
2022/07/21 10:13:40;;;;;;;11.05;9.95;;;;;;;26.96;52.83;101022.69;5012734;28;20029;-29
2022/07/21 10:16:08;;;;;;;10.82;9.80;;;;;;;27.08;52.52;101022.75;5012190;28;20513;-28
2022/07/21 10:18:43;;;;;;;12.70;11.18;;;;;;;27.19;51.92;101025.53;4985872;28;20018;-29
2022/07/21 10:21:16;;;;;;;11.48;10.40;;;;;;;27.29;51.70;101006.75;4992910;28;20376;-29
2022/07/21 10:23:42;;;;;;;10.75;9.73;;;;;;;27.41;51.51;101008.50;4992571;28;20030;-29
2022/07/21 10:26:10;;;;;;;11.90;10.95;;;;;;;27.49;51.14;101002.53;4988113;28;20037;-29
2022/07/21 10:28:36;;;;;;;10.95;9.85;;;;;;;27.62;51.10;101004.28;4994575;28;20034;-29
2022/07/21 10:31:21;;;;;;;10.10;9.13;;;;;;;27.71;51.58;100987.34;4994058;28;20029;-29
2022/07/21 10:33:47;;;;;;;10.32;9.13;;;;;;;27.79;51.05;100990.34;5011272;28;20025;-29
2022/07/21 10:36:28;;;;;;;10.80;9.90;;;;;;;27.96;51.21;101000.84;5012656;28;20034;-29
2022/07/21 10:39:06;;;;;;;10.40;9.32;;;;;;;28.05;50.99;100990.13;5012538;28;20034;-29
2022/07/21 10:41:51;;;;;;;11.30;10.25;;;;;;;28.18;50.46;100984.59;5012446;28;20400;-29
2022/07/21 10:44:29;;;;;;;10.93;9.88;;;;;;;28.37;50.14;100982.31;5011993;28;20478;-29
2022/07/21 10:46:59;;;;;;;10.45;9.45;;;;;;;28.54;49.80;100973.66;5012437;28;20529;-29
2022/07/21 10:49:53;;;;;;;10.20;9.20;;;;;;;28.61;49.56;100968.59;5013902;28;20033;-29
2022/07/21 10:52:41;;;;;;;10.27;9.32;;;;;;;28.79;49.35;100971.66;5000659;28;20529;-29
2022/07/21 10:55:09;;;;;;;10.63;9.63;;;;;;;28.99;48.75;100955.59;4997309;28;20033;-29
2022/07/21 10:57:59;;;;;;;9.63;8.82;;;;;;;29.07;48.61;100953.09;4996329;28;20032;-29
2022/07/21 11:00:29;;;;;;;11.20;10.10;;;;;;;29.25;48.47;100955.28;4977718;28;20062;-29
2022/07/21 11:03:01;;;;;;;9.73;8.82;;;;;;;29.47;48.10;100961.56;4978721;28;20075;-29
2022/07/21 11:05:29;;;;;;;10.73;9.75;;;;;;;29.63;47.29;100950.28;4997128;28;20359;-29
2022/07/21 11:08:10;;;;;;;9.68;8.80;;;;;;;29.75;47.02;100948.38;4979780;28;20030;-29
2022/07/21 11:10:38;;;;;;;10.38;9.48;;;;;;;29.91;46.50;100966.06;4996823;28;20026;-29
2022/07/21 11:13:03;;;;;;;11.02;10.00;;;;;;;30.00;45.38;100940.78;4996825;28;20041;-29
2022/07/21 11:15:50;;;;;;;11.32;10.32;;;;;;;30.04;45.76;100942.22;5027153;28;20389;-32
2022/07/21 11:18:23;;;;;;;10.85;9.93;;;;;;;30.02;45.21;100941.50;5025483;28;20037;-32
2022/07/21 11:21:11;;;;;;;10.23;9.18;;;;;;;30.03;45.19;100937.78;4999241;28;20030;-32